createdAt,value
2022-12-18T00:01:28.191Z,11.30
2022-12-18T00:03:56.756Z,11.80
2022-12-18T00:06:25.326Z,12.70
2022-12-18T00:08:52.027Z,12.90
2022-12-18T00:11:22.224Z,17.00
2022-12-18T00:13:49.771Z,11.70
2022-12-18T00:16:21.749Z,8.80
2022-12-18T00:18:50.487Z,11.20
2022-12-18T00:21:17.578Z,12.30
2022-12-18T00:23:45.616Z,7.40
2022-12-18T00:26:18.493Z,14.50
2022-12-18T00:28:46.805Z,13.50
2022-12-18T00:31:20.947Z,10.80
2022-12-18T00:33:48.239Z,13.10
2022-12-18T00:36:24.208Z,15.30
2022-12-18T00:38:51.148Z,14.30
2022-12-18T00:41:39.408Z,13.10
2022-12-18T00:44:08.529Z,14.70
2022-12-18T00:46:35.027Z,13.10
2022-12-18T00:49:01.470Z,13.50
2022-12-18T00:51:28.107Z,13.70
2022-12-18T00:53:54.827Z,13.60
2022-12-18T00:56:21.241Z,13.10
2022-12-18T00:58:47.631Z,14.10
2022-12-18T01:01:14.473Z,12.20
2022-12-18T01:03:42.281Z,13.20
2022-12-18T01:06:12.640Z,12.20
2022-12-18T01:08:40.239Z,11.30
2022-12-18T01:11:13.294Z,13.00
2022-12-18T01:13:41.031Z,12.20
2022-12-18T01:16:08.523Z,13.70
2022-12-18T01:18:35.448Z,16.00
2022-12-18T01:21:11.028Z,13.30
2022-12-18T01:23:37.807Z,13.10
2022-12-18T01:26:10.963Z,12.10
2022-12-18T01:28:45.096Z,12.40
2022-12-18T01:31:30.079Z,11.20
2022-12-18T01:33:56.952Z,10.90
2022-12-18T01:36:27.685Z,11.10
2022-12-18T01:38:55.126Z,11.90
2022-12-18T01:41:27.106Z,10.90
2022-12-18T01:44:00.767Z,11.70
2022-12-18T01:46:28.615Z,14.20
2022-12-18T01:49:00.438Z,13.70
2022-12-18T01:51:29.659Z,10.30
2022-12-18T01:53:56.403Z,11.20
2022-12-18T01:56:23.434Z,9.70
2022-12-18T01:59:06.978Z,9.80
2022-12-18T02:01:34.174Z,10.30
2022-12-18T02:04:25.347Z,9.10
2022-12-18T02:07:22.680Z,10.90
2022-12-18T02:10:04.755Z,13.00
2022-12-18T02:12:45.971Z,14.20
2022-12-18T02:15:35.503Z,13.30
2022-12-18T02:18:19.637Z,14.40
2022-12-18T02:21:31.279Z,11.90
2022-12-18T02:24:41.705Z,10.20
2022-12-18T02:27:11.610Z,11.60
2022-12-18T02:29:59.119Z,10.30
2022-12-18T02:32:33.904Z,11.40
2022-12-18T02:35:03.573Z,10.90
2022-12-18T02:37:32.732Z,13.60
2022-12-18T02:40:01.113Z,13.80
2022-12-18T02:42:29.169Z,14.70
2022-12-18T02:44:55.555Z,11.80
2022-12-18T02:47:28.460Z,10.90
2022-12-18T02:50:09.116Z,11.20
2022-12-18T02:52:56.346Z,13.00
2022-12-18T02:55:51.539Z,9.00
2022-12-18T02:58:34.130Z,9.90
2022-12-18T03:01:52.928Z,10.70
2022-12-18T03:04:29.306Z,12.80
2022-12-18T03:07:03.544Z,13.50
2022-12-18T03:09:38.153Z,15.80
2022-12-18T03:12:23.914Z,16.30
2022-12-18T03:15:18.376Z,12.80
2022-12-18T03:17:58.285Z,13.50
2022-12-18T03:20:29.195Z,12.60
2022-12-18T03:23:07.863Z,12.10
2022-12-18T03:25:41.773Z,10.30
2022-12-18T03:28:16.644Z,11.00
2022-12-18T03:30:47.167Z,13.20
2022-12-18T03:33:24.658Z,12.70
2022-12-18T03:35:51.601Z,16.60
2022-12-18T03:38:18.270Z,14.70
2022-12-18T03:41:16.768Z,14.00
2022-12-18T03:44:11.174Z,13.20
2022-12-18T03:46:59.668Z,11.50
2022-12-18T03:49:39.695Z,10.80
2022-12-18T03:52:21.621Z,11.60
2022-12-18T03:54:49.030Z,13.10
2022-12-18T03:57:25.367Z,12.30
2022-12-18T04:00:00.501Z,10.80
2022-12-18T04:02:27.473Z,9.10
2022-12-18T04:05:00.187Z,9.60
2022-12-18T04:07:28.490Z,9.90
2022-12-18T04:10:01.880Z,15.70
2022-12-18T04:12:31.138Z,16.60
2022-12-18T04:14:57.517Z,16.50
2022-12-18T04:17:24.727Z,12.00
2022-12-18T04:19:51.586Z,13.10
2022-12-18T04:22:19.383Z,12.80
2022-12-18T04:24:47.040Z,10.90
2022-12-18T04:27:13.917Z,12.70
2022-12-18T04:29:40.503Z,14.00
2022-12-18T04:32:06.918Z,11.50
2022-12-18T04:34:33.305Z,12.20
2022-12-18T04:36:59.750Z,10.30
2022-12-18T04:39:26.191Z,10.40
2022-12-18T04:41:53.032Z,10.80
2022-12-18T04:44:19.412Z,11.30
2022-12-18T04:46:45.923Z,8.90
2022-12-18T04:49:12.688Z,15.00
2022-12-18T04:51:42.640Z,14.70
2022-12-18T04:54:09.063Z,15.80
2022-12-18T04:56:35.527Z,14.50
2022-12-18T04:59:01.975Z,12.20
2022-12-18T05:01:34.284Z,12.80
2022-12-18T05:04:02.883Z,12.10
2022-12-18T05:06:32.124Z,12.30
2022-12-18T05:08:59.035Z,14.00
2022-12-18T05:11:25.463Z,13.30
2022-12-18T05:13:51.976Z,11.60
2022-12-18T05:16:18.477Z,12.90
2022-12-18T05:18:45.135Z,14.60
2022-12-18T05:21:11.614Z,17.70
2022-12-18T05:23:38.776Z,17.30
2022-12-18T05:26:08.669Z,15.60
2022-12-18T05:28:36.803Z,17.00
2022-12-18T05:31:05.193Z,13.90
2022-12-18T05:33:34.788Z,12.80
2022-12-18T05:36:04.415Z,14.30
2022-12-18T05:38:33.707Z,13.60
2022-12-18T05:41:00.158Z,13.40
2022-12-18T05:43:28.213Z,12.50
2022-12-18T05:45:55.894Z,11.40
2022-12-18T05:48:23.196Z,11.40
2022-12-18T05:50:51.816Z,13.30
2022-12-18T05:53:21.229Z,10.30
2022-12-18T05:55:48.242Z,18.20
2022-12-18T05:58:15.941Z,24.80
2022-12-18T06:00:46.413Z,20.60
2022-12-18T06:03:14.741Z,19.10
2022-12-18T06:05:45.085Z,18.00
2022-12-18T06:08:13.602Z,14.40
2022-12-18T06:10:41.810Z,15.80
2022-12-18T06:13:08.915Z,20.70
2022-12-18T06:15:38.170Z,16.40
2022-12-18T06:18:04.934Z,15.50
2022-12-18T06:20:33.636Z,16.40
2022-12-18T06:23:00.929Z,14.40
2022-12-18T06:25:27.427Z,16.10
2022-12-18T06:27:54.143Z,15.60
2022-12-18T06:30:20.984Z,17.80
2022-12-18T06:32:54.633Z,24.20
2022-12-18T06:35:23.241Z,18.80
2022-12-18T06:37:49.759Z,19.00
2022-12-18T06:40:17.080Z,28.60
2022-12-18T06:42:43.552Z,22.80
2022-12-18T06:45:12.036Z,18.20
2022-12-18T06:47:38.404Z,17.10
2022-12-18T06:50:06.527Z,18.20
2022-12-18T06:52:33.849Z,17.00
2022-12-18T06:55:01.345Z,19.10
2022-12-18T06:57:27.699Z,17.70
2022-12-18T06:59:55.517Z,13.70
2022-12-18T07:02:22.125Z,14.60
2022-12-18T07:04:48.656Z,14.30
2022-12-18T07:07:15.107Z,14.60
2022-12-18T07:09:41.499Z,15.60
2022-12-18T07:12:08.966Z,19.80
2022-12-18T07:14:35.375Z,22.00
2022-12-18T07:17:01.875Z,19.70
2022-12-18T07:19:28.423Z,16.50
2022-12-18T07:21:55.687Z,16.00
2022-12-18T07:24:22.209Z,16.30
2022-12-18T07:26:48.889Z,19.60
2022-12-18T07:29:15.267Z,19.70
2022-12-18T07:31:41.770Z,16.10
2022-12-18T07:34:16.266Z,14.00
2022-12-18T07:36:42.950Z,16.30
2022-12-18T07:39:11.568Z,27.90
2022-12-18T07:41:40.266Z,21.10
2022-12-18T07:44:11.867Z,16.90
2022-12-18T07:46:38.999Z,21.10
2022-12-18T07:49:05.396Z,31.10
2022-12-18T07:51:31.894Z,33.10
2022-12-18T07:53:58.350Z,25.10
2022-12-18T07:56:29.481Z,18.10
2022-12-18T07:58:57.552Z,15.90
2022-12-18T08:01:24.448Z,15.90
2022-12-18T08:03:52.420Z,31.30
2022-12-18T08:06:22.457Z,17.70
2022-12-18T08:08:56.721Z,18.70
2022-12-18T08:11:26.360Z,15.40
2022-12-18T08:13:53.327Z,29.90
2022-12-18T08:16:21.094Z,30.30
2022-12-18T08:18:48.049Z,35.10
2022-12-18T08:21:28.550Z,27.40
2022-12-18T08:24:00.399Z,20.70
2022-12-18T08:26:30.511Z,31.50
2022-12-18T08:28:59.513Z,38.40
2022-12-18T08:31:28.870Z,27.40
2022-12-18T08:33:56.680Z,21.20
2022-12-18T08:36:24.894Z,24.70
2022-12-18T08:38:52.033Z,24.10
2022-12-18T08:41:19.429Z,26.00
2022-12-18T08:44:05.179Z,39.40
2022-12-18T08:46:41.865Z,34.10
2022-12-18T08:49:10.898Z,23.20
2022-12-18T08:51:38.207Z,22.70
2022-12-18T08:54:06.526Z,18.20
2022-12-18T08:56:34.282Z,22.80
2022-12-18T08:59:00.928Z,21.00
2022-12-18T09:01:28.169Z,19.30
2022-12-18T09:03:55.188Z,19.80
2022-12-18T09:06:23.467Z,22.80
2022-12-18T09:08:50.532Z,23.00
2022-12-18T09:11:24.737Z,21.50
2022-12-18T09:13:52.042Z,22.20
2022-12-18T09:16:20.586Z,21.40
2022-12-18T09:18:48.388Z,22.10
2022-12-18T09:21:20.576Z,26.70
2022-12-18T09:23:51.621Z,30.30
2022-12-18T09:26:18.021Z,23.10
2022-12-18T09:28:45.012Z,30.10
2022-12-18T09:31:14.215Z,22.50
2022-12-18T09:33:40.784Z,19.60
2022-12-18T09:36:11.432Z,24.30
2022-12-18T09:38:38.530Z,35.70
2022-12-18T09:41:41.898Z,40.40
2022-12-18T09:44:26.060Z,24.70
2022-12-18T09:47:29.603Z,28.30
2022-12-18T09:50:23.303Z,29.60
2022-12-18T09:52:56.170Z,23.50
2022-12-18T09:55:36.899Z,21.80
2022-12-18T09:58:48.331Z,23.40
2022-12-18T10:01:22.316Z,23.60
2022-12-18T10:03:50.683Z,17.00
2022-12-18T10:06:25.391Z,18.50
2022-12-18T10:09:38.079Z,20.10
2022-12-18T10:12:37.437Z,26.30
2022-12-18T10:15:34.160Z,25.50
2022-12-18T10:18:41.011Z,24.00
2022-12-18T10:21:22.695Z,24.30
2022-12-18T10:24:04.287Z,26.20
2022-12-18T10:26:33.772Z,18.60
2022-12-18T10:29:05.505Z,24.10
2022-12-18T10:31:32.625Z,24.10
2022-12-18T10:33:59.212Z,18.50
2022-12-18T10:36:26.244Z,19.00
2022-12-18T10:38:52.734Z,20.40
2022-12-18T10:41:19.709Z,25.00
2022-12-18T10:43:49.217Z,27.40
2022-12-18T10:46:21.282Z,44.80
2022-12-18T10:48:47.618Z,39.90
2022-12-18T10:51:31.435Z,39.80
2022-12-18T10:54:06.618Z,36.40
2022-12-18T10:56:37.825Z,30.20
2022-12-18T10:59:07.923Z,26.90
2022-12-18T11:01:50.541Z,43.50
2022-12-18T11:04:26.516Z,31.50
2022-12-18T11:07:03.867Z,26.10
2022-12-18T11:09:33.763Z,31.50
2022-12-18T11:12:15.532Z,26.60
2022-12-18T11:14:52.798Z,22.30
2022-12-18T11:17:32.987Z,22.20
2022-12-18T11:20:03.159Z,23.20
2022-12-18T11:22:37.382Z,15.50
2022-12-18T11:25:36.209Z,14.80
2022-12-18T11:28:30.387Z,13.80
2022-12-18T11:31:26.813Z,19.00
2022-12-18T11:34:27.930Z,19.90
2022-12-18T11:36:49.589Z,21.20
2022-12-18T11:39:43.354Z,22.50
2022-12-18T11:42:28.678Z,18.50
2022-12-18T11:45:02.299Z,16.40
2022-12-18T11:48:19.206Z,22.00
2022-12-18T11:51:02.744Z,16.10
2022-12-18T11:53:31.440Z,25.10
2022-12-18T11:56:27.403Z,26.00
2022-12-18T11:59:16.352Z,29.10
2022-12-18T12:01:54.775Z,22.00
2022-12-18T12:04:40.467Z,19.00
2022-12-18T12:07:48.597Z,27.10
2022-12-18T12:10:46.412Z,27.10
2022-12-18T12:13:27.557Z,29.80
2022-12-18T12:16:16.094Z,28.60
2022-12-18T12:19:30.683Z,26.60
2022-12-18T12:22:40.284Z,22.30
2022-12-18T12:25:59.934Z,15.60
2022-12-18T12:29:01.061Z,13.50
2022-12-18T12:31:59.379Z,15.50
2022-12-18T12:35:11.662Z,15.70
2022-12-18T12:37:55.401Z,20.10
2022-12-18T12:40:51.305Z,28.50
2022-12-18T12:43:43.293Z,28.10
2022-12-18T12:46:22.345Z,21.00
2022-12-18T12:48:57.798Z,19.40
2022-12-18T12:51:34.595Z,19.30
2022-12-18T12:54:06.204Z,23.00
2022-12-18T12:56:51.370Z,29.90
2022-12-18T12:59:49.861Z,29.20
2022-12-18T13:03:07.047Z,27.00
2022-12-18T13:05:47.309Z,26.80
2022-12-18T13:08:29.308Z,25.20
2022-12-18T13:11:19.089Z,20.90
2022-12-18T13:13:52.702Z,17.40
2022-12-18T13:16:26.187Z,19.10
2022-12-18T13:18:57.751Z,20.30
2022-12-18T13:21:34.113Z,21.50
2022-12-18T13:24:25.722Z,25.80
2022-12-18T13:26:52.882Z,28.30
2022-12-18T13:29:44.439Z,18.00
2022-12-18T13:32:26.225Z,17.80
2022-12-18T13:35:18.461Z,21.00
2022-12-18T13:37:54.198Z,26.30
2022-12-18T13:40:43.693Z,23.90
2022-12-18T13:43:22.470Z,23.20
2022-12-18T13:46:01.098Z,22.00
2022-12-18T13:48:30.152Z,19.20
2022-12-18T13:51:09.613Z,24.60
2022-12-18T13:53:45.537Z,15.70
2022-12-18T13:56:18.587Z,12.90
2022-12-18T13:58:45.148Z,21.00
2022-12-18T14:01:25.443Z,19.40
2022-12-18T14:03:53.462Z,19.70
2022-12-18T14:06:19.872Z,16.60
2022-12-18T14:08:47.731Z,13.50
2022-12-18T14:11:23.930Z,18.60
2022-12-18T14:13:53.389Z,15.60
2022-12-18T14:16:20.846Z,11.60
2022-12-18T14:18:58.139Z,20.70
2022-12-18T14:21:34.972Z,15.30
2022-12-18T14:24:20.159Z,9.40
2022-12-18T14:26:49.612Z,9.20
2022-12-18T14:29:26.218Z,9.70
2022-12-18T14:32:25.184Z,9.50
2022-12-18T14:34:57.220Z,7.90
2022-12-18T14:37:28.326Z,9.40
2022-12-18T14:40:05.764Z,10.20
2022-12-18T14:42:37.531Z,24.50
2022-12-18T14:45:44.512Z,19.00
2022-12-18T14:48:23.018Z,21.30
2022-12-18T14:51:08.378Z,21.00
2022-12-18T14:53:52.090Z,16.70
2022-12-18T14:56:28.178Z,20.70
2022-12-18T14:58:59.733Z,19.60
2022-12-18T15:01:31.099Z,21.10
2022-12-18T15:04:00.284Z,24.50
2022-12-18T15:06:35.325Z,17.30
2022-12-18T15:09:21.389Z,16.60
2022-12-18T15:11:48.351Z,20.20
2022-12-18T15:14:56.407Z,21.80
2022-12-18T15:17:25.785Z,20.90
2022-12-18T15:20:02.074Z,14.80
2022-12-18T15:22:37.062Z,14.40
2022-12-18T15:25:32.264Z,11.90
2022-12-18T15:27:58.653Z,12.80
2022-12-18T15:30:26.851Z,14.60
2022-12-18T15:33:25.976Z,12.20
2022-12-18T15:36:06.008Z,9.50
2022-12-18T15:38:33.060Z,7.90
2022-12-18T15:40:59.836Z,11.40
2022-12-18T15:43:38.034Z,14.10
2022-12-18T15:46:09.987Z,18.00
2022-12-18T15:48:42.285Z,17.10
2022-12-18T15:51:26.889Z,16.90
2022-12-18T15:54:00.320Z,18.30
2022-12-18T15:56:46.207Z,18.90
2022-12-18T15:59:19.566Z,19.60
2022-12-18T16:01:54.135Z,19.70
2022-12-18T16:04:22.949Z,19.10
2022-12-18T16:09:37.709Z,18.50
2022-12-18T16:12:05.509Z,17.30
2022-12-18T16:14:33.847Z,13.90
2022-12-18T16:17:04.342Z,10.60
2022-12-18T16:19:31.037Z,14.50
2022-12-18T16:21:59.703Z,13.00
2022-12-18T16:24:30.512Z,12.40
2022-12-18T16:27:01.269Z,13.60
2022-12-18T16:29:29.889Z,11.90
2022-12-18T16:32:01.584Z,14.60
2022-12-18T16:34:34.872Z,8.10
2022-12-18T16:37:06.780Z,11.60
2022-12-18T16:39:35.264Z,12.00
2022-12-18T16:42:19.748Z,8.30
2022-12-18T16:44:48.695Z,17.70
2022-12-18T16:47:16.345Z,16.20
2022-12-18T16:49:45.871Z,18.30
2022-12-18T16:52:12.946Z,18.00
2022-12-18T16:54:39.459Z,16.70
2022-12-18T16:57:05.897Z,23.00
2022-12-18T16:59:32.663Z,18.60
2022-12-18T17:01:59.202Z,21.60
2022-12-18T17:04:25.762Z,17.80
2022-12-18T17:06:53.795Z,14.70
2022-12-18T17:09:25.409Z,15.40
2022-12-18T17:11:53.813Z,15.60
2022-12-18T17:14:23.750Z,13.40
2022-12-18T17:17:07.289Z,18.10
2022-12-18T17:19:37.379Z,16.10
2022-12-18T17:22:04.869Z,18.70
2022-12-18T17:24:34.756Z,16.30
2022-12-18T17:27:02.384Z,17.10
2022-12-18T17:29:28.791Z,17.70
2022-12-18T17:31:55.417Z,21.40
2022-12-18T17:34:23.735Z,23.90
2022-12-18T17:36:50.234Z,19.30
2022-12-18T17:39:20.608Z,20.20
2022-12-18T17:41:49.190Z,17.30
2022-12-18T17:44:17.225Z,16.70
2022-12-18T17:46:46.019Z,14.60
2022-12-18T17:49:14.007Z,16.30
2022-12-18T17:51:42.952Z,10.50
2022-12-18T17:54:10.804Z,8.30
2022-12-18T17:56:38.480Z,16.20
2022-12-18T17:59:05.892Z,11.60
2022-12-18T18:01:32.624Z,12.30
2022-12-18T18:04:00.445Z,16.40
2022-12-18T18:06:27.394Z,21.10
2022-12-18T18:08:54.298Z,19.80
2022-12-18T18:11:42.528Z,21.60
2022-12-18T18:14:17.026Z,21.20
2022-12-18T18:16:49.338Z,18.40
2022-12-18T18:19:22.526Z,24.20
2022-12-18T18:21:53.480Z,24.40
2022-12-18T18:24:23.707Z,17.10
2022-12-18T18:26:50.768Z,16.70
2022-12-18T18:29:22.222Z,16.90
2022-12-18T18:31:49.097Z,17.40
2022-12-18T18:34:25.724Z,17.00
2022-12-18T18:36:52.633Z,14.10
2022-12-18T18:39:19.944Z,16.50
2022-12-18T18:41:48.189Z,14.80
2022-12-18T18:44:17.572Z,16.00
2022-12-18T18:46:45.337Z,16.00
2022-12-18T18:49:13.687Z,13.00
2022-12-18T18:51:41.548Z,16.00
2022-12-18T18:54:09.021Z,17.00
2022-12-18T18:59:29.148Z,17.80
2022-12-18T19:02:00.654Z,15.90
2022-12-18T19:04:31.536Z,20.40
2022-12-18T19:06:57.897Z,21.20
2022-12-18T19:09:24.699Z,20.10
2022-12-18T19:12:10.669Z,18.00
2022-12-18T19:14:37.157Z,18.00
2022-12-18T19:17:03.517Z,16.60
2022-12-18T19:19:30.905Z,19.20
2022-12-18T19:21:57.559Z,13.60
2022-12-18T19:24:24.064Z,14.80
2022-12-18T19:26:52.064Z,14.40
2022-12-18T19:29:20.113Z,14.20
2022-12-18T19:31:46.532Z,13.80
2022-12-18T19:34:13.422Z,10.30
2022-12-18T19:36:41.014Z,10.40
2022-12-18T19:39:14.949Z,13.50
2022-12-18T19:41:43.002Z,14.10
2022-12-18T19:44:12.851Z,13.10
2022-12-18T19:46:41.660Z,13.30
2022-12-18T19:49:10.792Z,13.50
2022-12-18T19:51:38.397Z,14.40
2022-12-18T19:54:05.482Z,10.10
2022-12-18T19:56:34.736Z,13.90
2022-12-18T19:59:03.777Z,15.90
2022-12-18T20:01:31.529Z,14.60
2022-12-18T20:03:59.610Z,12.70
2022-12-18T20:06:33.303Z,14.40
2022-12-18T20:09:05.623Z,15.50
2022-12-18T20:11:36.384Z,15.50
2022-12-18T20:14:10.648Z,14.30
2022-12-18T20:16:37.372Z,12.70
2022-12-18T20:19:05.226Z,12.90
2022-12-18T20:21:32.088Z,8.60
2022-12-18T20:24:00.132Z,12.20
2022-12-18T20:26:27.234Z,12.30
2022-12-18T20:28:55.274Z,10.90
2022-12-18T20:31:22.318Z,12.00
2022-12-18T20:33:51.102Z,12.90
2022-12-18T20:36:22.086Z,8.80
2022-12-18T20:38:57.002Z,10.50
2022-12-18T20:41:26.213Z,10.00
2022-12-18T20:43:57.115Z,9.60
2022-12-18T20:46:24.524Z,9.20
2022-12-18T20:48:51.012Z,11.60
2022-12-18T20:51:20.716Z,16.80
2022-12-18T20:53:48.018Z,12.90
2022-12-18T20:56:22.085Z,10.20
2022-12-18T20:58:51.801Z,10.20
2022-12-18T21:01:23.610Z,11.20
2022-12-18T21:03:51.499Z,10.60
2022-12-18T21:06:22.660Z,11.50
2022-12-18T21:08:50.203Z,11.00
2022-12-18T21:11:38.578Z,11.00
2022-12-18T21:14:15.246Z,13.00
2022-12-18T21:16:43.956Z,10.80
2022-12-18T21:19:13.863Z,12.70
2022-12-18T21:21:41.507Z,12.20
2022-12-18T21:24:09.855Z,11.80
2022-12-18T21:26:44.881Z,10.70
2022-12-18T21:29:15.817Z,8.90
2022-12-18T21:31:43.794Z,10.30
2022-12-18T21:34:22.882Z,10.90
2022-12-18T21:36:49.733Z,9.60
2022-12-18T21:39:17.755Z,10.20
2022-12-18T21:42:05.463Z,11.60
2022-12-18T21:44:32.353Z,10.90
2022-12-18T21:47:21.412Z,10.80
2022-12-18T21:49:53.399Z,6.90
2022-12-18T21:52:27.240Z,10.00
2022-12-18T21:55:08.376Z,11.40
2022-12-18T21:57:37.008Z,11.10
2022-12-18T22:00:05.638Z,9.00
2022-12-18T22:02:32.495Z,10.00
2022-12-18T22:04:59.036Z,10.90
2022-12-18T22:07:26.576Z,13.10
2022-12-18T22:09:53.003Z,11.30
2022-12-18T22:12:35.501Z,12.10
2022-12-18T22:15:05.059Z,11.90
2022-12-18T22:17:31.890Z,12.10
2022-12-18T22:19:58.309Z,12.10
2022-12-18T22:22:24.795Z,11.50
2022-12-18T22:24:52.025Z,12.30
2022-12-18T22:27:18.467Z,12.60
2022-12-18T22:30:03.430Z,12.10
2022-12-18T22:32:34.951Z,9.90
2022-12-18T22:35:12.694Z,11.80
2022-12-18T22:37:41.902Z,11.90
2022-12-18T22:40:23.669Z,10.80
2022-12-18T22:42:50.722Z,8.60
2022-12-18T22:45:19.511Z,12.80
2022-12-18T22:47:45.915Z,13.00
2022-12-18T22:50:14.307Z,10.60
2022-12-18T22:52:41.343Z,10.70
2022-12-18T22:55:08.615Z,11.30
2022-12-18T22:57:35.239Z,13.00
2022-12-18T23:00:03.186Z,11.10
2022-12-18T23:02:29.746Z,12.90
2022-12-18T23:04:56.314Z,9.90
2022-12-18T23:07:22.719Z,10.10
2022-12-18T23:09:50.552Z,9.80
2022-12-18T23:12:20.142Z,8.80
2022-12-18T23:14:47.281Z,8.70
2022-12-18T23:17:13.865Z,10.00
2022-12-18T23:19:45.529Z,8.50
2022-12-18T23:22:15.325Z,8.90
2022-12-18T23:24:41.968Z,7.50
2022-12-18T23:27:11.936Z,9.20
2022-12-18T23:29:39.998Z,9.40
2022-12-18T23:32:07.937Z,10.20
2022-12-18T23:34:34.799Z,8.90
2022-12-18T23:37:03.500Z,8.10
2022-12-18T23:39:30.461Z,9.40
2022-12-18T23:41:58.694Z,7.80
2022-12-18T23:44:25.648Z,9.80
2022-12-18T23:46:52.296Z,9.30
2022-12-18T23:49:19.104Z,8.70
2022-12-18T23:51:45.472Z,8.10
2022-12-18T23:54:11.893Z,9.20
2022-12-18T23:56:38.280Z,9.10
2022-12-18T23:59:04.753Z,8.60
